createdAt,value
2022-09-02T00:02:38.479Z,1015.07
2022-09-02T00:31:10.738Z,1015.03
2022-09-02T00:59:51.831Z,1014.9
2022-09-02T01:28:38.255Z,1014.97
2022-09-02T01:57:19.136Z,1014.84
2022-09-02T02:26:01.388Z,1014.83
2022-09-02T02:54:42.067Z,1014.78
2022-09-02T03:23:29.227Z,1014.8
2022-09-02T03:52:08.042Z,1014.72
2022-09-02T04:21:48.725Z,1014.69
2022-09-02T04:50:14.531Z,1014.72
2022-09-02T05:19:02.199Z,1014.86
2022-09-02T05:47:45.703Z,1014.9
2022-09-02T06:16:20.454Z,1014.86
2022-09-02T06:45:37.605Z,1014.6
2022-09-02T07:14:39.194Z,1014.37
2022-09-02T07:43:05.896Z,1014.41
2022-09-02T08:11:32.377Z,1014.45
2022-09-02T08:39:45.476Z,1014.31
2022-09-02T09:08:22.700Z,1014.06
2022-09-02T09:36:44.324Z,1014.01
2022-09-02T10:05:15.883Z,1013.51
2022-09-02T10:33:42.162Z,1013.28
2022-09-02T11:02:20.104Z,1013.06
2022-09-02T11:31:00.945Z,1012.91
2022-09-02T11:59:30.667Z,1012.74
2022-09-02T12:28:01.705Z,1012.28
2022-09-02T12:56:27.918Z,1011.81
2022-09-02T13:24:58.084Z,1011.42
2022-09-02T13:54:18.504Z,1011.27
2022-09-02T14:22:02.896Z,1010.94
2022-09-02T14:50:30.060Z,1010.9
2022-09-02T15:18:54.024Z,1010.77
2022-09-02T15:47:26.255Z,1010.88
2022-09-02T16:15:47.348Z,1011.03
2022-09-02T16:44:16.230Z,1011.05
2022-09-02T17:13:05.016Z,1011.34
2022-09-02T22:26:40.322Z,1011.78
2022-09-02T22:55:15.268Z,1011.73
2022-09-02T23:23:40.949Z,1011.77
2022-09-02T23:52:22.195Z,1011.69
